createdAt,value
2022-08-07T00:02:37.593Z,101575.88
2022-08-07T00:04:09.677Z,101575.80
2022-08-07T00:06:51.141Z,101575.51
2022-08-07T00:09:22.676Z,101576.90
2022-08-07T00:11:55.536Z,101582.36
2022-08-07T00:14:30.969Z,101581.95
2022-08-07T00:17:02.531Z,101585.86
2022-08-07T00:20:00.173Z,101584.71
2022-08-07T00:22:24.782Z,101584.77
2022-08-07T00:25:07.364Z,101590.45
2022-08-07T00:27:52.698Z,101594.58
2022-08-07T00:30:27.025Z,101592.65
2022-08-07T00:32:58.285Z,101594.33
2022-08-07T00:35:29.989Z,101591.27
2022-08-07T00:38:00.113Z,101590.25
2022-08-07T00:40:39.638Z,101591.83
2022-08-07T00:44:01.016Z,101590.89
2022-08-07T00:46:02.739Z,101590.96
2022-08-07T00:48:32.391Z,101589.24
2022-08-07T00:51:02.821Z,101595.95
2022-08-07T00:53:38.507Z,101596.21
2022-08-07T00:56:18.744Z,101594.74
2022-08-07T00:58:49.836Z,101597.14
2022-08-07T01:01:20.438Z,101593.27
2022-08-07T01:03:56.314Z,101592.41
2022-08-07T01:06:29.412Z,101594.89
2022-08-07T01:09:00.946Z,101589.36
2022-08-07T01:12:23.406Z,101587.02
2022-08-07T01:14:28.246Z,101589.77
2022-08-07T01:16:58.479Z,101588.63
2022-08-07T01:19:32.238Z,101592.56
2022-08-07T01:22:03.438Z,101594.81
2022-08-07T01:24:41.869Z,101591.87
2022-08-07T01:27:19.663Z,101591.92
2022-08-07T01:29:50.478Z,101593.31
2022-08-07T01:32:19.395Z,101592.02
2022-08-07T01:34:51.150Z,101587.52
2022-08-07T01:37:20.088Z,101588.02
2022-08-07T01:39:49.835Z,101584.91
2022-08-07T01:42:37.551Z,101580.25
2022-08-07T01:45:10.079Z,101585.33
2022-08-07T01:48:20.585Z,101585.52
2022-08-07T01:50:43.013Z,101585.70
2022-08-07T01:53:20.823Z,101584.38
2022-08-07T01:56:02.447Z,101587.54
2022-08-07T01:58:41.006Z,101588.84
2022-08-07T02:01:25.566Z,101588.19
2022-08-07T02:04:16.256Z,101591.07
2022-08-07T02:06:48.573Z,101592.64
2022-08-07T02:09:52.428Z,101593.68
2022-08-07T02:12:17.744Z,101579.38
2022-08-07T02:14:56.023Z,101590.25
2022-08-07T02:17:49.597Z,101590.39
2022-08-07T02:20:23.810Z,101589.52
2022-08-07T02:23:01.736Z,101589.17
2022-08-07T02:26:10.751Z,101590.08
2022-08-07T02:28:27.096Z,101592.90
2022-08-07T02:30:59.073Z,101593.73
2022-08-07T02:33:33.015Z,101596.05
2022-08-07T02:36:28.564Z,101596.09
2022-08-07T02:39:16.265Z,101597.59
2022-08-07T02:41:50.554Z,101599.21
2022-08-07T02:44:27.653Z,101597.67
2022-08-07T02:47:05.715Z,101600.63
2022-08-07T02:49:58.519Z,101604.36
2022-08-07T02:52:32.763Z,101600.36
2022-08-07T02:55:15.329Z,101605.79
2022-08-07T02:58:03.008Z,101605.66
2022-08-07T03:00:35.977Z,101607.11
2022-08-07T03:03:13.312Z,101609.13
2022-08-07T03:05:45.303Z,101608.42
2022-08-07T03:08:14.368Z,101607.42
2022-08-07T03:10:47.150Z,101611.56
2022-08-07T03:13:20.237Z,101608.85
2022-08-07T03:15:56.179Z,101608.94
2022-08-07T03:18:34.487Z,101607.15
2022-08-07T03:21:08.546Z,101607.98
2022-08-07T03:24:20.499Z,101603.62
2022-08-07T03:26:34.313Z,101608.02
2022-08-07T03:29:11.237Z,101605.27
2022-08-07T03:31:49.923Z,101601.95
2022-08-07T03:34:22.515Z,101601.40
2022-08-07T03:36:54.876Z,101599.06
2022-08-07T03:39:59.039Z,101602.86
2022-08-07T03:42:17.115Z,101601.28
2022-08-07T03:44:53.194Z,101604.09
2022-08-07T03:47:22.582Z,101607.36
2022-08-07T03:49:52.440Z,101608.23
2022-08-07T03:52:28.173Z,101607.02
2022-08-07T03:55:07.295Z,101609.09
2022-08-07T03:58:35.419Z,101607.81
2022-08-07T04:00:33.584Z,101609.77
2022-08-07T04:03:05.282Z,101613.73
2022-08-07T04:05:40.292Z,101608.49
2022-08-07T04:08:16.098Z,101609.60
2022-08-07T04:10:54.339Z,101613.11
2022-08-07T04:14:10.348Z,101614.51
2022-08-07T04:16:31.607Z,101613.97
2022-08-07T04:19:04.106Z,101610.41
2022-08-07T04:21:48.190Z,101618.29
2022-08-07T04:24:38.897Z,101613.79
2022-08-07T04:27:15.164Z,101619.28
2022-08-07T04:30:01.349Z,101615.79
2022-08-07T04:32:48.423Z,101616.52
2022-08-07T04:35:35.021Z,101616.13
2022-08-07T04:38:13.036Z,101616.64
2022-08-07T04:40:51.906Z,101620.30
2022-08-07T04:44:09.922Z,101616.30
2022-08-07T04:47:04.859Z,101620.65
2022-08-07T04:50:11.032Z,101622.13
2022-08-07T04:52:59.210Z,101620.59
2022-08-07T04:58:16.887Z,101622.06
2022-08-07T05:00:07.820Z,101621.48
2022-08-07T05:02:20.481Z,101623.22
2022-08-07T05:05:12.006Z,101620.90
2022-08-07T05:08:04.645Z,101621.56
2022-08-07T05:10:45.462Z,101626.17
2022-08-07T05:14:53.187Z,101626.18
2022-08-07T05:16:18.724Z,101630.70
2022-08-07T05:19:11.907Z,101629.76
2022-08-07T05:21:59.923Z,101630.88
2022-08-07T05:24:40.246Z,101628.66
2022-08-07T05:27:14.509Z,101624.02
2022-08-07T05:30:02.690Z,101627.48
2022-08-07T05:32:31.442Z,101624.02
2022-08-07T05:35:02.432Z,101624.65
2022-08-07T05:37:31.908Z,101619.20
2022-08-07T05:40:17.717Z,101621.67
2022-08-07T05:42:55.852Z,101618.32
2022-08-07T05:45:46.107Z,101619.35
2022-08-07T05:48:14.577Z,101615.11
2022-08-07T05:50:46.777Z,101619.89
2022-08-07T05:54:13.790Z,101621.65
2022-08-07T05:56:06.897Z,101621.56
2022-08-07T05:58:40.762Z,101619.23
2022-08-07T06:01:21.068Z,101632.39
2022-08-07T06:04:01.025Z,101635.80
2022-08-07T06:06:35.769Z,101633.79
2022-08-07T06:09:06.198Z,101629.55
2022-08-07T06:11:38.002Z,101630.84
2022-08-07T06:14:11.499Z,101628.86
2022-08-07T06:16:50.386Z,101620.84
2022-08-07T06:19:58.084Z,101626.79
2022-08-07T06:22:22.829Z,101626.66
2022-08-07T06:24:58.185Z,101626.31
2022-08-07T06:27:44.122Z,101626.37
2022-08-07T06:30:32.301Z,101625.63
2022-08-07T06:33:16.334Z,101624.12
2022-08-07T06:36:06.191Z,101628.88
2022-08-07T06:38:35.463Z,101631.15
2022-08-07T06:41:15.743Z,101638.98
2022-08-07T06:43:59.494Z,101636.57
2022-08-07T06:46:35.265Z,101636.20
2022-08-07T06:49:05.322Z,101639.46
2022-08-07T06:51:49.628Z,101641.53
2022-08-07T06:55:33.827Z,101646.38
2022-08-07T06:57:09.504Z,101651.61
2022-08-07T07:00:14.593Z,101653.27
2022-08-07T07:02:53.407Z,101650.27
2022-08-07T07:06:03.226Z,101646.60
2022-08-07T07:08:18.548Z,101644.08
2022-08-07T07:10:57.154Z,101648.45
2022-08-07T07:13:58.238Z,101649.98
2022-08-07T07:16:45.219Z,101645.90
2022-08-07T07:19:56.023Z,101646.41
2022-08-07T07:22:39.997Z,101646.25
2022-08-07T07:26:31.022Z,101647.26
2022-08-07T07:28:48.549Z,101639.17
2022-08-07T07:31:39.871Z,101639.55
2022-08-07T07:34:22.150Z,101636.14
2022-08-07T07:37:14.364Z,101633.48
2022-08-07T07:39:54.669Z,101630.86
2022-08-07T07:42:32.843Z,101626.96
2022-08-07T07:45:04.378Z,101624.73
2022-08-07T07:47:52.268Z,101625.91
2022-08-07T07:50:34.816Z,101627.46
2022-08-07T07:53:20.178Z,101623.43
2022-08-07T07:56:00.877Z,101623.94
2022-08-07T07:58:36.889Z,101618.73
2022-08-07T08:02:01.706Z,101614.79
2022-08-07T08:04:09.325Z,101616.97
2022-08-07T08:06:51.986Z,101616.94
2022-08-07T08:09:25.330Z,101613.33
2022-08-07T08:12:03.819Z,101614.27
2022-08-07T08:14:36.700Z,101613.35
2022-08-07T08:17:32.400Z,101614.85
2022-08-07T08:20:18.487Z,101603.39
2022-08-07T08:23:11.133Z,101608.40
2022-08-07T08:26:04.706Z,101609.88
2022-08-07T08:28:44.793Z,101609.36
2022-08-07T08:31:22.859Z,101606.18
2022-08-07T08:34:12.373Z,101608.33
2022-08-07T08:36:56.182Z,101607.33
2022-08-07T08:39:39.051Z,101608.79
2022-08-07T08:42:27.584Z,101605.42
2022-08-07T08:45:13.733Z,101608.81
2022-08-07T08:48:32.539Z,101603.88
2022-08-07T08:51:26.227Z,101603.69
2022-08-07T08:54:24.216Z,101602.73
2022-08-07T08:56:56.225Z,101606.36
2022-08-07T08:59:48.455Z,101607.04
2022-08-07T09:02:39.347Z,101605.77
2022-08-07T09:05:58.942Z,101600.34
2022-08-07T09:09:03.434Z,101601.13
2022-08-07T09:12:31.196Z,101599.02
2022-08-07T09:16:24.390Z,101596.44
2022-08-07T09:18:58.519Z,101596.34
2022-08-07T09:22:09.849Z,101592.86
2022-08-07T09:24:58.586Z,101587.41
2022-08-07T09:28:01.080Z,101584.66
2022-08-07T09:31:00.935Z,101585.77
2022-08-07T09:33:57.692Z,101584.64
2022-08-07T09:36:37.104Z,101581.10
2022-08-07T09:39:54.696Z,101579.52
2022-08-07T09:42:50.464Z,101580.64
2022-08-07T09:47:51.123Z,101576.02
2022-08-07T09:50:18.327Z,101571.13
2022-08-07T09:52:33.356Z,101563.79
2022-08-07T09:56:02.318Z,101559.85
2022-08-07T09:58:54.289Z,101559.22
2022-08-07T10:02:33.659Z,101555.31
2022-08-07T10:05:59.841Z,101557.34
2022-08-07T10:09:07.266Z,101556.14
2022-08-07T10:12:39.673Z,101556.77
2022-08-07T10:15:49.056Z,101552.05
2022-08-07T10:18:46.814Z,101546.34
2022-08-07T10:21:51.132Z,101536.95
2022-08-07T10:25:01.509Z,101538.73
2022-08-07T10:27:58.616Z,101531.90
2022-08-07T10:30:50.053Z,101532.76
2022-08-07T10:34:05.785Z,101523.89
2022-08-07T10:38:00.316Z,101517.32
2022-08-07T10:40:33.356Z,101517.27
2022-08-07T10:43:19.296Z,101518.96
2022-08-07T10:46:08.053Z,101518.21
2022-08-07T10:49:10.113Z,101517.46
2022-08-07T10:52:13.204Z,101516.83
2022-08-07T10:55:01.265Z,101499.92
2022-08-07T10:57:59.673Z,101502.54
2022-08-07T11:00:50.612Z,101492.48
2022-08-07T11:03:52.484Z,101491.16
2022-08-07T11:06:44.454Z,101482.52
2022-08-07T11:10:08.624Z,101481.67
2022-08-07T11:12:35.333Z,101482.31
2022-08-07T11:15:17.970Z,101477.41
2022-08-07T11:18:14.848Z,101470.36
2022-08-07T11:21:21.679Z,101472.73
2022-08-07T11:24:08.650Z,101472.02
2022-08-07T11:27:06.323Z,101470.40
2022-08-07T11:30:18.201Z,101463.20
2022-08-07T11:32:58.679Z,101458.97
2022-08-07T11:36:01.442Z,101459.68
2022-08-07T11:38:50.985Z,101461.42
2022-08-07T11:41:29.713Z,101460.34
2022-08-07T11:45:01.634Z,101457.13
2022-08-07T11:47:38.922Z,101455.33
2022-08-07T11:50:57.688Z,101453.38
2022-08-07T11:54:09.768Z,101448.81
2022-08-07T11:57:15.842Z,101445.19
2022-08-07T12:00:10.682Z,101442.83
2022-08-07T12:03:41.968Z,101442.53
2022-08-07T12:06:51.597Z,101435.96
2022-08-07T12:09:36.379Z,101432.44
2022-08-07T12:12:14.331Z,101432.64
2022-08-07T12:15:46.507Z,101431.13
2022-08-07T12:18:29.778Z,101424.40
2022-08-07T12:21:54.978Z,101422.09
2022-08-07T12:24:38.342Z,101410.73
2022-08-07T12:27:16.207Z,101409.64
2022-08-07T12:30:04.573Z,101405.81
2022-08-07T12:32:48.311Z,101401.23
2022-08-07T12:35:19.462Z,101405.48
2022-08-07T12:38:10.234Z,101399.29
2022-08-07T12:40:47.780Z,101398.70
2022-08-07T12:44:01.935Z,101397.58
2022-08-07T12:46:32.472Z,101392.86
2022-08-07T12:49:25.869Z,101390.66
2022-08-07T12:52:18.081Z,101388.13
2022-08-07T12:55:05.582Z,101385.29
2022-08-07T12:58:00.738Z,101384.88
2022-08-07T13:00:50.470Z,101389.90
2022-08-07T13:04:01.953Z,101386.39
2022-08-07T13:07:00.183Z,101383.12
2022-08-07T13:10:19.562Z,101375.89
2022-08-07T13:12:53.954Z,101374.85
2022-08-07T13:15:35.195Z,101372.52
2022-08-07T13:18:34.204Z,101369.65
2022-08-07T13:21:50.488Z,101366.90
2022-08-07T13:24:30.817Z,101361.17
2022-08-07T13:27:20.801Z,101366.91
2022-08-07T13:30:05.949Z,101361.80
2022-08-07T13:34:31.224Z,101360.86
2022-08-07T13:36:17.799Z,101357.44
2022-08-07T13:39:49.063Z,101358.38
2022-08-07T13:42:10.162Z,101355.34
2022-08-07T13:44:40.138Z,101354.18
2022-08-07T13:47:15.926Z,101352.77
2022-08-07T13:50:34.785Z,101348.96
2022-08-07T13:52:46.985Z,101345.89
2022-08-07T13:55:25.819Z,101343.41
2022-08-07T13:58:32.524Z,101342.48
2022-08-07T14:01:20.401Z,101333.27
2022-08-07T14:04:05.343Z,101332.73
2022-08-07T14:06:41.888Z,101329.20
2022-08-07T14:10:02.722Z,101324.66
2022-08-07T14:12:27.576Z,101324.70
2022-08-07T14:15:04.576Z,101317.15
2022-08-07T14:18:27.317Z,101315.99
2022-08-07T14:20:41.050Z,101311.58
2022-08-07T14:23:59.416Z,101308.84
2022-08-07T14:26:28.088Z,101306.60
2022-08-07T14:29:06.028Z,101310.08
2022-08-07T14:31:57.641Z,101302.40
2022-08-07T14:34:30.207Z,101291.61
2022-08-07T14:37:04.109Z,101305.60
2022-08-07T14:40:17.392Z,101300.70
2022-08-07T14:42:31.225Z,101300.58
2022-08-07T14:45:21.183Z,101307.16
2022-08-07T14:47:58.692Z,101303.58
2022-08-07T14:50:29.062Z,101302.76
2022-08-07T14:53:08.210Z,101299.61
2022-08-07T14:55:55.565Z,101299.77
2022-08-07T14:58:34.170Z,101300.58
2022-08-07T15:01:21.717Z,101301.63
2022-08-07T15:03:53.393Z,101299.14
2022-08-07T15:06:29.822Z,101302.25
2022-08-07T15:12:26.034Z,101292.02
2022-08-07T15:15:09.192Z,101292.58
2022-08-07T15:18:04.443Z,101286.89
2022-08-07T15:20:54.943Z,101287.88
2022-08-07T15:26:28.869Z,101279.27
2022-08-07T15:30:02.314Z,101276.38
2022-08-07T15:34:50.407Z,101276.18
2022-08-07T15:38:17.813Z,101272.36
2022-08-07T15:43:53.850Z,101267.02
2022-08-07T15:46:31.868Z,101265.77
2022-08-07T15:49:15.124Z,101265.45
2022-08-07T15:54:34.291Z,101266.90
2022-08-07T15:57:06.427Z,101262.73
2022-08-07T15:59:39.982Z,101256.29
2022-08-07T16:02:26.983Z,101255.12
2022-08-07T16:05:15.427Z,101256.14
2022-08-07T16:08:31.926Z,101254.67
2022-08-07T16:10:43.055Z,101256.41
2022-08-07T16:14:00.267Z,101253.63
2022-08-07T16:16:49.938Z,101248.67
2022-08-07T16:19:59.279Z,101247.65
2022-08-07T16:22:58.027Z,101246.93
2022-08-07T16:26:01.357Z,101245.30
2022-08-07T16:30:09.136Z,101244.59
2022-08-07T16:32:01.458Z,101244.73
2022-08-07T16:34:48.387Z,101248.29
2022-08-07T16:38:06.385Z,101247.27
2022-08-07T16:41:41.055Z,101244.08
2022-08-07T16:45:15.094Z,101241.44
2022-08-07T16:48:53.564Z,101242.44
2022-08-07T16:51:54.480Z,101242.89
2022-08-07T16:55:11.539Z,101237.59
2022-08-07T16:58:02.702Z,101238.98
2022-08-07T17:00:53.950Z,101238.67
2022-08-07T17:03:59.390Z,101232.39
2022-08-07T17:07:02.935Z,101232.85
2022-08-07T17:10:05.981Z,101231.55
2022-08-07T17:12:53.976Z,101232.41
2022-08-07T17:15:50.710Z,101230.41
2022-08-07T17:19:00.906Z,101232.25
2022-08-07T17:21:51.255Z,101237.54
2022-08-07T17:25:00.939Z,101235.72
2022-08-07T17:27:54.405Z,101236.33
2022-08-07T17:30:30.322Z,101238.06
2022-08-07T17:34:09.369Z,101240.42
2022-08-07T17:36:20.524Z,101237.56
2022-08-07T17:39:10.186Z,101237.05
2022-08-07T17:42:06.740Z,101237.96
2022-08-07T17:44:50.074Z,101236.60
2022-08-07T17:47:38.644Z,101239.16
2022-08-07T17:50:19.502Z,101240.16
2022-08-07T17:54:00.039Z,101241.91
2022-08-07T17:56:28.721Z,101245.00
2022-08-07T17:59:20.110Z,101243.84
2022-08-07T18:02:34.115Z,101241.76
2022-08-07T18:05:21.324Z,101242.27
2022-08-07T18:08:31.223Z,101245.77
2022-08-07T18:12:07.026Z,101246.69
2022-08-07T18:14:24.316Z,101248.73
2022-08-07T18:17:07.438Z,101253.96
2022-08-07T18:21:10.478Z,101252.70
2022-08-07T18:22:58.637Z,101257.59
2022-08-07T18:25:40.663Z,101261.96
2022-08-07T18:28:35.242Z,101260.52
2022-08-07T18:31:49.859Z,101263.54
2022-08-07T18:34:40.951Z,101266.63
2022-08-07T18:38:56.988Z,101268.81
2022-08-07T18:41:02.765Z,101276.69
2022-08-07T18:43:59.083Z,101279.64
2022-08-07T18:47:10.224Z,101278.05
2022-08-07T18:50:40.603Z,101283.16
2022-08-07T18:53:21.907Z,101284.79
2022-08-07T18:56:32.654Z,101290.80
2022-08-07T18:59:47.704Z,101296.14
2022-08-07T19:02:36.267Z,101296.40
2022-08-07T19:06:02.749Z,101298.63
2022-08-07T19:08:46.312Z,101299.27
2022-08-07T19:11:36.226Z,101305.02
2022-08-07T19:14:39.165Z,101302.84
2022-08-07T19:17:55.899Z,101303.93
2022-08-07T19:20:24.975Z,101308.31
2022-08-07T19:23:18.541Z,101311.63
2022-08-07T19:26:25.026Z,101306.05
2022-08-07T19:30:54.832Z,101311.61
2022-08-07T19:32:06.818Z,101316.10
2022-08-07T19:34:38.833Z,101316.14
2022-08-07T19:37:17.289Z,101300.77
2022-08-07T19:39:57.455Z,101315.98
2022-08-07T19:42:40.008Z,101321.27
2022-08-07T19:46:04.978Z,101320.63
2022-08-07T19:48:18.634Z,101323.75
2022-08-07T19:50:53.184Z,101322.23
2022-08-07T19:54:34.719Z,101324.46
2022-08-07T19:58:00.719Z,101327.08
2022-08-07T19:59:07.069Z,101328.44
2022-08-07T20:01:52.324Z,101329.25
2022-08-07T20:04:37.559Z,101328.41
2022-08-07T20:07:10.291Z,101330.20
2022-08-07T20:10:37.370Z,101330.02
2022-08-07T20:12:39.992Z,101332.70
2022-08-07T20:15:22.108Z,101336.45
2022-08-07T20:18:01.643Z,101337.81
2022-08-07T20:20:34.587Z,101339.25
2022-08-07T20:23:23.364Z,101343.05
2022-08-07T20:26:09.995Z,101342.56
2022-08-07T20:28:41.314Z,101341.60
2022-08-07T20:31:21.268Z,101339.91
2022-08-07T20:33:56.663Z,101341.32
2022-08-07T20:36:29.610Z,101338.13
2022-08-07T20:39:00.075Z,101336.82
2022-08-07T20:41:38.524Z,101335.56
2022-08-07T20:44:12.617Z,101342.82
2022-08-07T20:46:45.238Z,101341.20
2022-08-07T20:49:58.518Z,101338.91
2022-08-07T20:52:29.892Z,101342.64
2022-08-07T20:54:58.304Z,101343.77
2022-08-07T20:57:35.984Z,101347.08
2022-08-07T21:00:09.583Z,101346.90
2022-08-07T21:03:03.182Z,101346.47
2022-08-07T21:05:50.841Z,101344.11
2022-08-07T21:08:44.516Z,101342.77
2022-08-07T21:11:22.135Z,101343.44
2022-08-07T21:14:34.022Z,101338.38
2022-08-07T21:18:28.041Z,101339.98
2022-08-07T21:20:04.685Z,101340.90
2022-08-07T21:22:51.312Z,101340.33
2022-08-07T21:26:03.024Z,101342.77
2022-08-07T21:28:51.207Z,101341.39
2022-08-07T21:32:43.600Z,101346.17
2022-08-07T21:35:02.491Z,101349.76
2022-08-07T21:38:18.798Z,101347.86
2022-08-07T21:41:17.383Z,101348.96
2022-08-07T21:43:57.069Z,101349.98
2022-08-07T21:46:45.600Z,101351.19
2022-08-07T21:50:01.819Z,101345.73
2022-08-07T21:52:54.714Z,101345.43
2022-08-07T21:55:52.424Z,101344.30
2022-08-07T21:59:06.625Z,101346.84
2022-08-07T22:02:10.154Z,101344.48
2022-08-07T22:04:41.001Z,101347.08
2022-08-07T22:07:58.960Z,101346.11
2022-08-07T22:10:28.407Z,101349.95
2022-08-07T22:13:12.596Z,101349.44
2022-08-07T22:16:43.620Z,101346.12
2022-08-07T22:19:08.412Z,101349.48
2022-08-07T22:22:04.899Z,101350.15
2022-08-07T22:24:43.574Z,101351.16
2022-08-07T22:27:20.901Z,101352.92
2022-08-07T22:30:15.127Z,101353.68
2022-08-07T22:33:09.151Z,101352.77
2022-08-07T22:36:06.430Z,101350.02
2022-08-07T22:38:51.788Z,101353.85
2022-08-07T22:42:03.616Z,101351.61
2022-08-07T22:44:33.248Z,101349.61
2022-08-07T22:47:33.737Z,101354.16
2022-08-07T22:50:29.184Z,101356.59
2022-08-07T22:54:06.527Z,101354.00
2022-08-07T22:57:00.675Z,101358.60
2022-08-07T22:59:51.976Z,101356.56
2022-08-07T23:02:53.538Z,101359.93
2022-08-07T23:06:09.991Z,101361.38
2022-08-07T23:08:53.033Z,101367.91
2022-08-07T23:11:48.490Z,101366.58
2022-08-07T23:15:00.229Z,101374.55
2022-08-07T23:17:33.077Z,101384.22
2022-08-07T23:20:53.248Z,101383.34
2022-08-07T23:24:05.639Z,101383.25
2022-08-07T23:26:49.956Z,101385.73
2022-08-07T23:30:38.398Z,101385.63
2022-08-07T23:34:23.130Z,101385.27
2022-08-07T23:36:22.942Z,101387.39
2022-08-07T23:39:36.210Z,101380.39
2022-08-07T23:43:16.428Z,101378.91
2022-08-07T23:46:27.351Z,101380.67
2022-08-07T23:49:49.935Z,101375.77
2022-08-07T23:52:58.510Z,101370.73
2022-08-07T23:56:05.345Z,101374.33
